Wells Municipal-Harriet, NV

6:25 AM PDT on October 20, 2014 (GMT -0700)
MesoWest WELLS/MOOR GRADE NV US NV DOT | Change Station
CLOSE
Current Station
Personal Weather Station
Location: Wells, NV
Elevation: 5875 ft
Nearby Weather Stations

Elev 5875 ft 41.10 °N, 114.91 °W | Updated 44 minutes ago

Clear
Clear
46 °F
Feels Like 46 °F
N
3
Wind Variable Wind from ENE
Gusts 5.0 mph

Today
High -- | Low -- °F
--% Chance of Precip.
Yesterday
High -- | Low -- °F
Precip. -- in
6:56 AM 5:51 PM
Waning Crescent, 11% visible
Pressure 29.94 in
Visibility 10.0 miles
Clouds Clear
Windchill 46 °F
Dew Point 28 °F
Humidity 49%
Rainfall -999.00 in
Snow Depth Not available.
UV 0 out of 12
Pollen 3.50 out of 12
Air Quality Not available.
Flu Activity No Activity
METAR KEKO 201256Z AUTO 07006KT 10SM CLR 04/M03 A3002 RMK AO2 SLP139 T00441028

More Conditions Fewer Conditions

Pressure 29.94 in
Visibility 10.0 miles
Clouds Clear
Windchill 46 °F
Dew Point 28 °F
Humidity 49%
Rainfall -999.00 in
Snow Depth Not available.
UV 0 out of 12
Pollen 3.50 out of 12
Air Quality Not available.
Flu Activity No Activity
METAR KEKO 201256Z AUTO 07006KT 10SM CLR 04/M03 A3002 RMK AO2 SLP139 T00441028

More Conditions Fewer Conditions

10-Day Weather Forecast

Almanac

Astronomy

Oct. 20, 2014 Rise Set
Actual Time 6:56 AM PDT 5:51 PM PDT
Civil Twilight 6:28 AM PDT 6:19 PM PDT
Nautical Twilight 5:56 AM PDT 6:51 PM PDT
Astronomical Twilight 5:24 AM PDT 7:23 PM PDT
Moon 3:47 AM PDT 4:17 PM PDT
Length of Visible Light 11h 50m
Length of Day
10h 54m
Waning Crescent, 11% of the Moon is Illuminated
Today
Waning Crescent
Oct 23
New
Oct 30
First Quarter
Nov 6
Full
Nov 14
Last Quarter

Today's Extremes

State Highs State Lows

Community

WunderPhotos

Upload Photos

1,763,378 photos uploaded!

Nearby

Snow Depth

Station Depth Elevation
Dorsey Basin 0 in 8100 ft
Lamoille #3 0 in 7700 ft
Draw Creek 0 in 7200 ft
Seventysix Creek 0 in 7100 ft
Taylor Canyon 2 in 6200 ft

Earthquake Activity

City Distance Mag. Time & Date
No recent earthquake activity has been reported nearby.
Minimum magnitude displayed is 2.5.

Coastal Water Temperatures

Place Temperature
No Stations Reporting

Nearby Weather Stations